Main page
METAR-TAF:

METAR-TAF

Airports :

Parnaíba-Prefeito Dr. João Silva Filho International Airport

Parnaíba, Piauí, Brazil

latitude: 02-55S, longitude: 041-45W, elevation: 5 m

Current weather observation

The report was made 14 hours and 44 minutes ago, at 19:45 UTC
Wind 14 kt from the Northeast
Temperature 29°C
Humidity 70%
Pressure 1008 hPa
Visibility 10 km or more
no clouds below 1500 m and no cumulonimbus

METAR: SBPB 131945Z 05014KT CAVOK 29/23 Q1008

Time: 07:29 (10:29 UTC)

Forecast

The report was made 6 hours and 29 minutes ago, at 04:00 UTC
Forecast valid from 14 at 06 UTC to 14 at 18 UTC
Wind 15 kt from the Northeast
Visibility 10 km or more
no clouds below 1500 m and no cumulonimbus
Becoming
from 14 at 09 UTC to 14 at 11 UTC
Wind 15 kt from the East
Scattered clouds at a height of 2000 ft
Becoming
from 14 at 14 UTC to 14 at 16 UTC
Wind 15 kt from the Northeast

TAF: SBPB 140400Z 1406/1418 05015KT CAVOK TN26/1406Z TX32/1415Z BECMG 1409/1411 08015KT SCT020 BECMG 1414/1416 05015KT RMK PEH

Weather observations and forecasts of more than 4000 airports (METAR and TAF reports).

The available stations are represented by yellow and red dots on the map.

Hover mouse over dot to see the name of the station.

Then click to see weather observations and forecasts.

To change the map : click on the green buttons with a black cross to zoom in, on the green button with a dash to zoom out, or on the green arrows for adjacent maps.


METAR-TAF: